createdAt,value
2022-07-28T00:08:26.339Z,98840.56
2022-07-28T00:18:33.503Z,98833.69
2022-07-28T00:28:41.026Z,98831.98
2022-07-28T00:38:48.838Z,98829.48
2022-07-28T00:48:58.031Z,98830.63
2022-07-28T00:59:04.091Z,98831.50
2022-07-28T01:21:01.650Z,98832.06
2022-07-28T01:31:13.094Z,98833.53
2022-07-28T01:41:18.084Z,98836.33
2022-07-28T01:51:28.414Z,98842.98
2022-07-28T02:01:38.694Z,98854.55
2022-07-28T02:11:47.649Z,98852.65
2022-07-28T02:21:57.307Z,98851.40
2022-07-28T02:32:27.358Z,98856.77
2022-07-28T02:42:39.004Z,98863.95
2022-07-28T02:52:46.397Z,98871.84
2022-07-28T03:02:54.653Z,98882.14
2022-07-28T03:13:01.814Z,98885.06
2022-07-28T03:23:08.277Z,98899.17
2022-07-28T03:33:15.942Z,98897.09
2022-07-28T04:06:12.180Z,98923.44
2022-07-28T04:16:19.326Z,98916.20
2022-07-28T04:37:09.613Z,98914.19
2022-07-28T04:47:17.153Z,98920.14
2022-07-28T04:57:24.183Z,98917.37
2022-07-28T05:07:32.889Z,98917.91
2022-07-28T05:17:38.517Z,98924.08
2022-07-28T05:51:41.558Z,98937.15
2022-07-28T06:02:03.675Z,98945.88
2022-07-28T06:12:11.212Z,98952.33
2022-07-28T06:22:18.463Z,98961.88
2022-07-28T06:32:25.396Z,98971.77
2022-07-28T06:42:32.389Z,98973.45
2022-07-28T06:52:39.910Z,98974.16
2022-07-28T07:02:47.717Z,98973.02
2022-07-28T07:12:53.213Z,98969.15
2022-07-28T07:23:00.608Z,98973.80
2022-07-28T07:33:09.650Z,98975.14
2022-07-28T07:43:18.851Z,98977.59
2022-07-28T07:53:24.599Z,98981.73
2022-07-28T08:03:32.215Z,98980.84
2022-07-28T08:13:40.351Z,98983.19
2022-07-28T08:23:45.969Z,98978.95
2022-07-28T08:33:54.340Z,98976.21
2022-07-28T08:44:04.265Z,98977.79
2022-07-28T08:54:13.189Z,98980.33
2022-07-28T09:04:21.260Z,98971.86
2022-07-28T09:14:29.024Z,98965.61
2022-07-28T09:24:34.624Z,98962.11
2022-07-28T09:34:46.564Z,98964.27
2022-07-28T09:45:22.399Z,98957.03
2022-07-28T09:55:29.708Z,98952.17
2022-07-28T10:05:40.140Z,98953.33
2022-07-28T10:16:14.635Z,98950.84
2022-07-28T10:26:22.259Z,98939.67
2022-07-28T10:36:32.401Z,98929.26
2022-07-28T10:46:40.625Z,98925.05
2022-07-28T10:56:59.005Z,98922.03
2022-07-28T11:07:12.654Z,98920.33
2022-07-28T11:17:23.949Z,98923.13
2022-07-28T11:28:03.440Z,98919.20
2022-07-28T11:38:15.756Z,98916.70
2022-07-28T11:48:21.809Z,98913.52
2022-07-28T11:58:29.345Z,98914.48
2022-07-28T12:08:51.714Z,98904.33
2022-07-28T12:19:01.645Z,98898.67
2022-07-28T12:29:12.096Z,98898.34
2022-07-28T12:39:20.042Z,98888.67
2022-07-28T12:49:25.317Z,98875.70
2022-07-28T12:59:33.386Z,98881.27
2022-07-28T13:09:39.861Z,98881.68
2022-07-28T13:19:47.540Z,98879.52
2022-07-28T13:29:54.423Z,98882.63
2022-07-28T13:40:01.190Z,98878.05
2022-07-28T13:50:05.047Z,98882.85
2022-07-28T14:00:15.531Z,98875.35
2022-07-28T14:10:27.695Z,98869.86
2022-07-28T14:20:35.665Z,98865.48
2022-07-28T14:30:43.152Z,98853.70
2022-07-28T14:40:50.830Z,98851.66
2022-07-28T14:50:58.724Z,98849.40
2022-07-28T15:01:06.475Z,98840.66
2022-07-28T15:11:15.420Z,98832.92
2022-07-28T15:21:22.129Z,98829.33
2022-07-28T15:31:30.623Z,98825.59
2022-07-28T15:41:37.980Z,98821.65
2022-07-28T15:51:45.524Z,98822.77
2022-07-28T16:01:53.243Z,98818.75
2022-07-28T16:12:00.567Z,98815.55
2022-07-28T16:22:07.956Z,98815.84
2022-07-28T16:32:13.486Z,98814.86
2022-07-28T16:42:20.599Z,98808.09
2022-07-28T16:52:27.844Z,98807.85
2022-07-28T17:02:34.092Z,98808.55
2022-07-28T17:12:42.046Z,98810.22
2022-07-28T17:22:47.824Z,98809.66
2022-07-28T17:32:55.301Z,98812.95
2022-07-28T17:43:02.533Z,98818.46
2022-07-28T17:53:09.674Z,98825.98
2022-07-28T18:03:18.879Z,98828.45
2022-07-28T18:13:27.681Z,98830.89
2022-07-28T18:23:34.727Z,98829.80
2022-07-28T18:33:41.864Z,98829.14
2022-07-28T18:43:49.225Z,98842.21
2022-07-28T18:53:56.258Z,98851.95
2022-07-28T19:04:03.319Z,98855.45
2022-07-28T19:14:11.995Z,98859.28
2022-07-28T19:24:20.294Z,98872.73
2022-07-28T19:34:27.760Z,98877.26
2022-07-28T19:44:34.781Z,98883.08
2022-07-28T19:54:42.092Z,98889.72
2022-07-28T20:04:49.104Z,98894.95
2022-07-28T20:14:56.463Z,98900.90
2022-07-28T20:25:03.795Z,98904.70
2022-07-28T20:35:10.767Z,98905.66
2022-07-28T20:45:17.972Z,98902.98
2022-07-28T20:55:26.441Z,98910.62
2022-07-28T21:05:35.943Z,98916.55
2022-07-28T21:15:43.479Z,98918.27
2022-07-28T21:25:51.561Z,98921.91
2022-07-28T21:35:58.561Z,98923.61
2022-07-28T21:46:05.944Z,98936.08
2022-07-28T21:56:13.506Z,98940.31
2022-07-28T22:06:20.601Z,98938.55
2022-07-28T22:16:27.663Z,98935.02
2022-07-28T22:26:34.899Z,98935.29
2022-07-28T22:36:42.041Z,98936.26
2022-07-28T22:46:49.120Z,98940.86
2022-07-28T22:56:55.537Z,98936.36
2022-07-28T23:07:02.963Z,98943.34
2022-07-28T23:17:10.437Z,98948.65
2022-07-28T23:27:17.677Z,98946.30
2022-07-28T23:37:24.887Z,98951.02
2022-07-28T23:47:34.482Z,98957.10
2022-07-28T23:57:41.607Z,98957.86
